Time;durP1;ratioP1;P1;durP2;ratioP2;P2;SDS_P1;SDS_P2;PMS_P1;PMS_P2;Temp;Humidity;BMP_temperature;BMP_pressure;BME280_temperature;BME280_humidity;BME280_pressure;Samples;Min_cycle;Max_cycle;Signal;HPM_P1;HPM_P2
2021/06/08 00:02:01;;;;;;;39.92;26.10;;;;;;;;;;5026926;28;20050;-86
2021/06/08 00:04:28;;;;;;;40.75;25.33;;;;;;;;;;5026522;28;20053;-86
2021/06/08 00:06:55;;;;;;;39.88;24.73;;;;;;;;;;5025610;28;20501;-86
2021/06/08 00:09:23;;;;;;;50.25;26.70;;;;;;;;;;5025279;28;20051;-85
2021/06/08 00:11:50;;;;;;;42.28;27.75;;;;;;;;;;5026156;28;20402;-85
2021/06/08 00:14:18;;;;;;;45.38;27.70;;;;;;;;;;5025271;28;20144;-85
2021/06/08 00:16:45;;;;;;;37.33;25.70;;;;;;;;;;5027117;28;20131;-86
2021/06/08 00:19:12;;;;;;;41.20;27.40;;;;;;;;;;5027504;28;20053;-85
2021/06/08 00:21:40;;;;;;;44.45;28.10;;;;;;;;;;5026397;28;20145;-86
2021/06/08 00:24:09;;;;;;;39.83;25.67;;;;;;;;;;5024756;28;20136;-86
2021/06/08 00:26:36;;;;;;;40.50;26.55;;;;;;;;;;5026736;28;20060;-86
2021/06/08 00:29:03;;;;;;;48.10;28.38;;;;;;;;;;5027422;28;20144;-85
2021/06/08 00:31:31;;;;;;;44.25;27.63;;;;;;;;;;5025230;28;20195;-86
2021/06/08 00:33:59;;;;;;;41.63;27.00;;;;;;;;;;5025573;28;20076;-86
2021/06/08 00:36:26;;;;;;;43.53;28.90;;;;;;;;;;5025497;28;20080;-86
2021/06/08 00:38:53;;;;;;;46.10;28.58;;;;;;;;;;5025632;28;20045;-86
2021/06/08 00:41:42;;;;;;;46.60;30.40;;;;;;;;;;5025596;28;20130;-86
2021/06/08 00:44:13;;;;;;;41.25;25.40;;;;;;;;;;5024672;28;20050;-86
2021/06/08 00:46:41;;;;;;;40.85;26.23;;;;;;;;;;5025507;28;20103;-86
2021/06/08 00:49:08;;;;;;;41.60;27.15;;;;;;;;;;5025580;28;20146;-86
2021/06/08 00:51:35;;;;;;;42.70;26.75;;;;;;;;;;5025534;28;20053;-86
2021/06/08 00:54:07;;;;;;;44.53;27.80;;;;;;;;;;5025286;28;20057;-86
2021/06/08 00:56:35;;;;;;;49.10;28.60;;;;;;;;;;5026256;28;20171;-86
2021/06/08 00:59:02;;;;;;;42.90;27.73;;;;;;;;;;5026851;28;20249;-86
2021/06/08 01:01:29;;;;;;;46.78;29.33;;;;;;;;;;5024715;28;20089;-86
2021/06/08 01:03:57;;;;;;;45.17;27.42;;;;;;;;;;5006339;28;20450;-86
2021/06/08 01:06:26;;;;;;;45.72;27.27;;;;;;;;;;5007069;28;20104;-86
2021/06/08 01:08:54;;;;;;;43.63;27.90;;;;;;;;;;5005446;28;20049;-86
2021/06/08 01:11:22;;;;;;;44.75;27.08;;;;;;;;;;5006699;28;20046;-86
2021/06/08 01:13:49;;;;;;;46.03;27.52;;;;;;;;;;5005467;28;20046;-86
2021/06/08 01:16:17;;;;;;;45.38;26.05;;;;;;;;;;5005050;28;20089;-86
2021/06/08 01:18:44;;;;;;;41.85;26.98;;;;;;;;;;5005564;28;20340;-86
2021/06/08 01:21:12;;;;;;;44.30;26.98;;;;;;;;;;5006020;28;20104;-86
2021/06/08 01:23:40;;;;;;;43.40;26.88;;;;;;;;;;5005065;28;20113;-86
2021/06/08 01:26:07;;;;;;;40.15;27.20;;;;;;;;;;5005098;28;20445;-85
2021/06/08 01:28:36;;;;;;;45.35;26.58;;;;;;;;;;5005639;28;20060;-86
2021/06/08 01:31:07;;;;;;;42.58;26.55;;;;;;;;;;5005059;28;20060;-86
2021/06/08 01:33:39;;;;;;;48.08;26.92;;;;;;;;;;5004797;28;20061;-86
2021/06/08 01:36:08;;;;;;;40.78;25.98;;;;;;;;;;5006652;28;20252;-85
2021/06/08 01:38:36;;;;;;;38.45;24.83;;;;;;;;;;5015592;28;20057;-85
2021/06/08 01:41:03;;;;;;;40.30;25.92;;;;;;;;;;5028199;28;20057;-85
2021/06/08 01:43:31;;;;;;;36.97;23.17;;;;;;;;;;5028400;28;20136;-84
2021/06/08 01:45:58;;;;;;;41.47;24.92;;;;;;;;;;5028411;28;20132;-85
2021/06/08 01:48:25;;;;;;;38.42;23.80;;;;;;;;;;5028464;28;20049;-85
2021/06/08 01:50:57;;;;;;;40.13;25.13;;;;;;;;;;5028520;28;20054;-85
2021/06/08 01:53:36;;;;;;;38.88;23.15;;;;;;;;;;5027869;28;20459;-85
2021/06/08 01:56:06;;;;;;;40.90;24.55;;;;;;;;;;5029667;28;20120;-85
2021/06/08 01:58:34;;;;;;;40.60;25.77;;;;;;;;;;5029201;28;20568;-85
2021/06/08 02:01:31;;;;;;;42.95;24.90;;;;;;;;;;5029923;28;20162;-85
2021/06/08 02:04:02;;;;;;;40.60;23.55;;;;;;;;;;5017946;28;20059;-85
2021/06/08 02:06:32;;;;;;;39.58;24.33;;;;;;;;;;5028519;28;20055;-85
2021/06/08 02:09:05;;;;;;;40.70;24.25;;;;;;;;;;5027831;28;20049;-85
2021/06/08 02:11:32;;;;;;;39.22;25.35;;;;;;;;;;5028143;28;20132;-85
2021/06/08 02:14:06;;;;;;;44.08;27.15;;;;;;;;;;5027579;28;20525;-85
2021/06/08 02:16:52;;;;;;;46.88;27.38;;;;;;;;;;5028052;28;20056;-86
2021/06/08 02:19:22;;;;;;;51.83;28.85;;;;;;;;;;5029510;28;20148;-86
2021/06/08 02:21:51;;;;;;;50.42;30.60;;;;;;;;;;5027975;28;20049;-86
2021/06/08 02:24:20;;;;;;;51.25;29.95;;;;;;;;;;5029132;28;20569;-85
2021/06/08 02:26:48;;;;;;;57.78;33.28;;;;;;;;;;5028012;28;20172;-86
2021/06/08 02:29:17;;;;;;;58.78;34.85;;;;;;;;;;5027854;28;20105;-85
2021/06/08 02:31:44;;;;;;;58.70;34.25;;;;;;;;;;5027610;28;20498;-85
2021/06/08 02:34:15;;;;;;;61.05;34.72;;;;;;;;;;5027111;28;20088;-86
2021/06/08 02:36:43;;;;;;;65.28;35.40;;;;;;;;;;5029244;28;20053;-86
2021/06/08 02:39:11;;;;;;;60.22;35.85;;;;;;;;;;5027506;28;20589;-86
2021/06/08 02:41:42;;;;;;;56.72;34.15;;;;;;;;;;5028980;28;20057;-85
2021/06/08 02:44:10;;;;;;;56.55;34.05;;;;;;;;;;5027412;28;20152;-85
2021/06/08 02:46:38;;;;;;;64.78;35.55;;;;;;;;;;5026813;28;20144;-85
2021/06/08 02:49:06;;;;;;;58.90;35.13;;;;;;;;;;5027254;28;20053;-86
2021/06/08 02:51:35;;;;;;;61.05;35.50;;;;;;;;;;5027421;28;20148;-86
2021/06/08 02:54:03;;;;;;;67.97;35.00;;;;;;;;;;5028716;28;20760;-85
2021/06/08 02:56:31;;;;;;;70.78;37.95;;;;;;;;;;5027420;28;20457;-85
2021/06/08 02:59:01;;;;;;;62.45;36.83;;;;;;;;;;5031078;28;20053;-85
2021/06/08 03:01:29;;;;;;;64.30;36.55;;;;;;;;;;5032449;28;20053;-86
2021/06/08 03:03:59;;;;;;;66.63;38.17;;;;;;;;;;5033456;28;20136;-84
2021/06/08 03:06:39;;;;;;;71.10;39.72;;;;;;;;;;5032550;28;20061;-85
2021/06/08 03:09:08;;;;;;;70.20;40.67;;;;;;;;;;5031968;28;20504;-86
2021/06/08 03:11:39;;;;;;;87.63;39.38;;;;;;;;;;5029147;28;20046;-86
2021/06/08 03:14:07;;;;;;;75.70;42.00;;;;;;;;;;5026843;28;20064;-86
2021/06/08 03:16:37;;;;;;;75.30;41.17;;;;;;;;;;5028384;28;20092;-86
2021/06/08 03:19:06;;;;;;;87.88;45.72;;;;;;;;;;5027217;28;20059;-86
2021/06/08 03:21:35;;;;;;;76.60;42.75;;;;;;;;;;5028347;28;20144;-86
2021/06/08 03:24:05;;;;;;;82.30;43.35;;;;;;;;;;5026646;28;20061;-86
2021/06/08 03:26:36;;;;;;;84.03;46.38;;;;;;;;;;5027571;28;20057;-86
2021/06/08 03:29:06;;;;;;;92.82;48.88;;;;;;;;;;5027352;28;20300;-86
2021/06/08 03:31:36;;;;;;;105.90;48.75;;;;;;;;;;5033701;28;20132;-86
2021/06/08 03:34:04;;;;;;;86.85;47.80;;;;;;;;;;5033270;28;20054;-85
2021/06/08 03:36:33;;;;;;;85.93;47.28;;;;;;;;;;5032861;28;20084;-86
2021/06/08 03:39:00;;;;;;;79.82;44.63;;;;;;;;;;5032025;28;20088;-86
2021/06/08 03:41:28;;;;;;;87.35;48.42;;;;;;;;;;5031626;28;20076;-86
2021/06/08 03:43:56;;;;;;;100.03;48.33;;;;;;;;;;5029689;28;20140;-85
2021/06/08 03:46:24;;;;;;;92.60;47.20;;;;;;;;;;5028013;28;20057;-85
2021/06/08 03:48:52;;;;;;;80.50;46.95;;;;;;;;;;5030400;28;20095;-86
2021/06/08 03:51:21;;;;;;;86.97;46.28;;;;;;;;;;5030312;28;20053;-86
2021/06/08 03:53:48;;;;;;;85.78;46.75;;;;;;;;;;5028947;28;20573;-86
2021/06/08 03:56:16;;;;;;;83.80;43.20;;;;;;;;;;5026899;28;20144;-86
2021/06/08 03:58:43;;;;;;;74.90;44.40;;;;;;;;;;5026830;28;20061;-83
2021/06/08 04:01:11;;;;;;;88.18;47.00;;;;;;;;;;5027730;28;20132;-87
2021/06/08 04:03:38;;;;;;;90.88;47.08;;;;;;;;;;5010573;28;20370;-86
2021/06/08 04:06:09;;;;;;;75.57;43.75;;;;;;;;;;5006783;28;20045;-84
2021/06/08 04:08:36;;;;;;;81.20;42.72;;;;;;;;;;5006469;28;20136;-84
2021/06/08 04:11:04;;;;;;;86.95;42.95;;;;;;;;;;5006429;28;20089;-84
2021/06/08 04:13:31;;;;;;;72.35;42.95;;;;;;;;;;5006102;28;20058;-86
2021/06/08 04:15:59;;;;;;;77.68;45.30;;;;;;;;;;5006592;28;20072;-86
2021/06/08 04:18:30;;;;;;;77.63;42.47;;;;;;;;;;5007721;28;20537;-90
2021/06/08 04:20:59;;;;;;;73.10;42.03;;;;;;;;;;5008683;28;20710;-91
2021/06/08 04:23:27;;;;;;;77.93;40.95;;;;;;;;;;5009353;28;20486;-91
2021/06/08 04:25:55;;;;;;;81.20;43.88;;;;;;;;;;5009265;28;20050;-92
2021/06/08 04:28:37;;;;;;;84.38;42.80;;;;;;;;;;4997108;28;20460;-91
2021/06/08 04:31:05;;;;;;;79.35;40.75;;;;;;;;;;5007977;28;20487;-92
2021/06/08 04:33:33;;;;;;;72.38;40.03;;;;;;;;;;5006329;28;20061;-91
2021/06/08 04:36:00;;;;;;;78.32;41.45;;;;;;;;;;5006566;28;20093;-89
2021/06/08 04:38:27;;;;;;;78.85;44.67;;;;;;;;;;5005344;28;20144;-90
2021/06/08 04:40:55;;;;;;;76.55;42.67;;;;;;;;;;5006116;28;20088;-88
2021/06/08 04:43:23;;;;;;;82.20;42.53;;;;;;;;;;5007535;28;20056;-89
2021/06/08 04:45:50;;;;;;;74.20;42.28;;;;;;;;;;5005125;28;20049;-89
2021/06/08 04:48:18;;;;;;;71.15;40.75;;;;;;;;;;5006773;28;20130;-88
2021/06/08 04:50:45;;;;;;;69.70;39.85;;;;;;;;;;5004858;28;20149;-88
2021/06/08 04:53:12;;;;;;;67.70;37.22;;;;;;;;;;5005855;28;20123;-90
2021/06/08 04:55:39;;;;;;;68.63;36.90;;;;;;;;;;5005285;28;20141;-90
2021/06/08 04:58:08;;;;;;;65.47;37.58;;;;;;;;;;5006365;28;20120;-90
2021/06/08 05:00:40;;;;;;;65.30;37.58;;;;;;;;;;5003731;28;20049;-90
2021/06/08 05:03:11;;;;;;;64.38;36.67;;;;;;;;;;5003286;28;20157;-89
2021/06/08 05:05:40;;;;;;;67.65;36.58;;;;;;;;;;5003820;28;20060;-86
2021/06/08 05:08:10;;;;;;;61.63;35.75;;;;;;;;;;5003482;28;20084;-88
2021/06/08 05:10:43;;;;;;;57.63;33.97;;;;;;;;;;5005193;28;20053;-90
2021/06/08 05:13:11;;;;;;;59.80;33.70;;;;;;;;;;5009369;28;20077;-90
2021/06/08 05:15:39;;;;;;;59.20;33.05;;;;;;;;;;5008415;28;20148;-90
2021/06/08 05:18:07;;;;;;;56.45;31.77;;;;;;;;;;5010036;28;20495;-90
2021/06/08 05:20:42;;;;;;;61.13;31.52;;;;;;;;;;5008230;28;20152;-90
2021/06/08 05:23:09;;;;;;;57.43;30.03;;;;;;;;;;5008362;28;20052;-90
2021/06/08 05:25:39;;;;;;;50.42;30.25;;;;;;;;;;5008932;28;20081;-90
2021/06/08 05:28:07;;;;;;;55.50;28.80;;;;;;;;;;5008263;28;20164;-89
2021/06/08 05:30:34;;;;;;;49.88;29.23;;;;;;;;;;5008096;28;20141;-90
2021/06/08 05:33:02;;;;;;;59.58;30.75;;;;;;;;;;5009511;28;20152;-90
2021/06/08 05:35:31;;;;;;;54.03;30.80;;;;;;;;;;5007841;28;20144;-90
2021/06/08 05:38:02;;;;;;;48.90;28.98;;;;;;;;;;5008175;28;20141;-90
2021/06/08 05:40:30;;;;;;;44.80;28.33;;;;;;;;;;5008520;28;20046;-90
2021/06/08 05:42:57;;;;;;;44.53;28.10;;;;;;;;;;5021990;28;20676;-89
2021/06/08 05:45:24;;;;;;;48.13;28.05;;;;;;;;;;5029082;28;20164;-89
2021/06/08 05:47:51;;;;;;;50.05;27.05;;;;;;;;;;5027211;28;20045;-90
2021/06/08 05:50:19;;;;;;;42.30;28.23;;;;;;;;;;5027288;28;20148;-90
2021/06/08 05:52:46;;;;;;;48.95;28.20;;;;;;;;;;5027386;28;20084;-90
2021/06/08 05:55:15;;;;;;;52.00;25.75;;;;;;;;;;5028722;28;20053;-90
2021/06/08 05:57:46;;;;;;;38.25;24.63;;;;;;;;;;5027609;28;20053;-89
2021/06/08 06:00:14;;;;;;;39.85;26.00;;;;;;;;;;5027478;28;20711;-89
2021/06/08 06:02:42;;;;;;;44.72;26.00;;;;;;;;;;5027358;28;20479;-88
2021/06/08 06:05:09;;;;;;;39.55;24.20;;;;;;;;;;5026691;28;20095;-90
2021/06/08 06:07:38;;;;;;;34.05;22.48;;;;;;;;;;5027434;28;20088;-91
2021/06/08 06:10:06;;;;;;;42.28;24.58;;;;;;;;;;5028132;28;20085;-88
2021/06/08 06:12:36;;;;;;;35.50;21.85;;;;;;;;;;5027438;28;20049;-90
2021/06/08 06:15:04;;;;;;;32.42;20.67;;;;;;;;;;5027047;28;20057;-90
2021/06/08 06:17:36;;;;;;;32.95;21.55;;;;;;;;;;5027484;28;20172;-91
2021/06/08 06:20:08;;;;;;;38.22;20.77;;;;;;;;;;5026763;28;20057;-90
2021/06/08 06:22:35;;;;;;;33.70;19.90;;;;;;;;;;5025359;28;20148;-89
2021/06/08 06:25:07;;;;;;;29.48;19.02;;;;;;;;;;5027945;28;20102;-88
2021/06/08 06:27:35;;;;;;;30.77;20.95;;;;;;;;;;5027476;28;20080;-88
2021/06/08 06:30:03;;;;;;;36.78;19.70;;;;;;;;;;5027053;28;20049;-90
2021/06/08 06:32:31;;;;;;;42.63;22.60;;;;;;;;;;5026879;28;20067;-89
2021/06/08 06:34:58;;;;;;;33.75;19.55;;;;;;;;;;5030826;28;20482;-94
2021/06/08 06:37:26;;;;;;;39.92;21.90;;;;;;;;;;5037839;28;20077;-94
2021/06/08 06:40:28;;;;;;;30.02;19.77;;;;;;;;;;5036398;28;20080;-94
2021/06/08 06:43:01;;;;;;;35.25;18.88;;;;;;;;;;5034323;28;20076;-93
2021/06/08 06:45:29;;;;;;;30.15;19.15;;;;;;;;;;5032347;28;20061;-92
2021/06/08 06:48:03;;;;;;;28.35;17.63;;;;;;;;;;5030710;28;20478;-91
2021/06/08 06:50:31;;;;;;;34.28;17.20;;;;;;;;;;5031970;28;20132;-90
2021/06/08 06:52:59;;;;;;;28.10;17.20;;;;;;;;;;5031736;28;20053;-91
2021/06/08 06:55:33;;;;;;;22.42;15.43;;;;;;;;;;5030831;28;20053;-92
2021/06/08 06:58:01;;;;;;;26.52;14.02;;;;;;;;;;5032532;28;20363;-91
2021/06/08 07:00:29;;;;;;;17.70;12.68;;;;;;;;;;5032620;28;20059;-92
2021/06/08 07:02:59;;;;;;;24.05;11.70;;;;;;;;;;5033229;28;20465;-91
2021/06/08 07:05:28;;;;;;;17.02;10.63;;;;;;;;;;5033142;28;20355;-92
2021/06/08 07:07:55;;;;;;;17.13;9.95;;;;;;;;;;5033059;28;20132;-92
2021/06/08 07:10:25;;;;;;;18.15;9.13;;;;;;;;;;5031983;28;20514;-91
2021/06/08 07:12:55;;;;;;;12.60;8.23;;;;;;;;;;5032830;28;20049;-92
2021/06/08 07:15:24;;;;;;;18.58;8.25;;;;;;;;;;5032471;28;20505;-90
2021/06/08 07:18:11;;;;;;;10.52;7.47;;;;;;;;;;5032492;28;20099;-92
2021/06/08 07:20:38;;;;;;;12.35;6.95;;;;;;;;;;5028043;28;20045;-92
2021/06/08 07:23:06;;;;;;;9.57;6.75;;;;;;;;;;5034003;28;20045;-92
2021/06/08 07:25:36;;;;;;;8.57;6.57;;;;;;;;;;5034172;28;20041;-93
2021/06/08 07:28:04;;;;;;;9.02;6.88;;;;;;;;;;5035778;28;20470;-92
2021/06/08 07:30:38;;;;;;;74.55;11.20;;;;;;;;;;5034457;28;20168;-92
2021/06/08 07:33:14;;;;;;;76.07;14.73;;;;;;;;;;5034080;28;20049;-92
2021/06/08 07:36:00;;;;;;;50.08;9.35;;;;;;;;;;5035176;28;20045;-92
2021/06/08 07:38:47;;;;;;;9.63;7.40;;;;;;;;;;5033869;28;20053;-92
2021/06/08 07:41:22;;;;;;;17.02;7.95;;;;;;;;;;5034335;28;20049;-92
2021/06/08 07:43:54;;;;;;;8.80;7.60;;;;;;;;;;5034519;28;20073;-92
2021/06/08 07:46:32;;;;;;;15.57;8.90;;;;;;;;;;5034185;28;20057;-91
2021/06/08 07:49:00;;;;;;;24.35;8.07;;;;;;;;;;5033856;28;20051;-91
2021/06/08 07:51:29;;;;;;;10.80;7.68;;;;;;;;;;5033789;28;20057;-91
2021/06/08 07:53:57;;;;;;;11.52;7.38;;;;;;;;;;5033281;28;20053;-92
2021/06/08 07:56:26;;;;;;;10.95;7.50;;;;;;;;;;5031347;28;20073;-91
2021/06/08 07:58:53;;;;;;;14.48;8.00;;;;;;;;;;5013311;28;20058;-90
2021/06/08 08:01:21;;;;;;;15.23;7.78;;;;;;;;;;5013785;28;20529;-92
2021/06/08 08:03:49;;;;;;;13.43;8.05;;;;;;;;;;5013789;28;20088;-92
2021/06/08 08:06:31;;;;;;;17.13;8.43;;;;;;;;;;5013886;28;20556;-92
2021/06/08 08:08:59;;;;;;;17.42;8.38;;;;;;;;;;5028459;28;20076;-91
2021/06/08 08:11:28;;;;;;;11.85;8.38;;;;;;;;;;5030243;28;20053;-91
2021/06/08 08:13:57;;;;;;;15.85;8.02;;;;;;;;;;5029698;28;20073;-91
2021/06/08 08:16:24;;;;;;;12.00;6.95;;;;;;;;;;5034011;28;20058;-91
2021/06/08 08:18:53;;;;;;;13.40;7.53;;;;;;;;;;5027801;28;20053;-91
2021/06/08 08:21:33;;;;;;;11.60;7.63;;;;;;;;;;5030304;28;20053;-90
2021/06/08 08:24:00;;;;;;;12.82;7.20;;;;;;;;;;5024291;28;20557;-90
2021/06/08 08:26:28;;;;;;;10.63;5.90;;;;;;;;;;5006580;28;20082;-89
2021/06/08 08:29:00;;;;;;;12.82;6.65;;;;;;;;;;5006309;28;20654;-90
2021/06/08 08:31:28;;;;;;;8.63;5.93;;;;;;;;;;5017630;28;20075;-89
2021/06/08 08:33:56;;;;;;;7.88;5.72;;;;;;;;;;5031760;28;20045;-93
2021/06/08 08:36:27;;;;;;;13.88;6.38;;;;;;;;;;5030071;28;20049;-89
2021/06/08 08:38:54;;;;;;;9.55;6.10;;;;;;;;;;5024532;28;20080;-89
2021/06/08 08:41:22;;;;;;;10.40;6.82;;;;;;;;;;5025998;28;20446;-89
2021/06/08 08:43:50;;;;;;;11.70;6.30;;;;;;;;;;5028192;28;20057;-90
2021/06/08 08:46:18;;;;;;;12.48;7.57;;;;;;;;;;5044914;28;20679;-89
2021/06/08 08:48:47;;;;;;;17.73;7.25;;;;;;;;;;5043013;28;20442;-89
2021/06/08 08:51:16;;;;;;;15.77;6.10;;;;;;;;;;5043007;28;20093;-91
2021/06/08 08:53:45;;;;;;;9.15;6.53;;;;;;;;;;5042823;28;20080;-90
2021/06/08 08:56:35;;;;;;;19.75;6.47;;;;;;;;;;5043512;28;20119;-90
2021/06/08 08:59:11;;;;;;;9.80;5.50;;;;;;;;;;5042543;28;20467;-90
2021/06/08 09:01:43;;;;;;;6.20;4.60;;;;;;;;;;5042985;28;20063;-90
2021/06/08 09:04:19;;;;;;;5.80;4.57;;;;;;;;;;5027374;28;20089;-91
2021/06/08 09:07:10;;;;;;;21.35;6.03;;;;;;;;;;5029818;28;20054;-91
2021/06/08 09:09:39;;;;;;;7.82;3.75;;;;;;;;;;5042902;28;20061;-89
2021/06/08 09:12:19;;;;;;;7.30;4.13;;;;;;;;;;5041758;28;20053;-91
2021/06/08 09:14:51;;;;;;;6.05;3.58;;;;;;;;;;5042246;28;20056;-90
2021/06/08 09:17:54;;;;;;;4.55;3.38;;;;;;;;;;5040139;28;20048;-89
2021/06/08 09:20:21;;;;;;;13.93;4.15;;;;;;;;;;5041837;28;20053;-90
2021/06/08 09:22:50;;;;;;;9.23;4.95;;;;;;;;;;5042304;28;20049;-91
2021/06/08 09:25:38;;;;;;;6.50;4.20;;;;;;;;;;5042167;28;20085;-88
2021/06/08 09:28:42;;;;;;;13.50;4.70;;;;;;;;;;5043577;28;20498;-90
2021/06/08 09:38:44;;;;;;;10.75;4.97;;;;;;;;;;5021277;28;20036;-92
2021/06/08 09:44:36;;;;;;;9.48;3.35;;;;;;;;;;5028992;28;20056;-91
2021/06/08 09:47:42;;;;;;;6.65;3.20;;;;;;;;;;5025487;28;20058;-90
2021/06/08 09:50:35;;;;;;;6.07;3.38;;;;;;;;;;5024767;28;20068;-91
2021/06/08 09:53:22;;;;;;;5.05;3.10;;;;;;;;;;5029832;28;20088;-91
2021/06/08 09:55:57;;;;;;;13.73;3.33;;;;;;;;;;5025959;28;20076;-90
2021/06/08 09:58:25;;;;;;;5.15;2.80;;;;;;;;;;5032061;28;20391;-90
2021/06/08 10:04:32;;;;;;;5.50;2.53;;;;;;;;;;5030439;28;20830;-90
2021/06/08 10:07:45;;;;;;;7.88;3.10;;;;;;;;;;5030696;28;20153;-90
2021/06/08 10:10:14;;;;;;;5.85;2.90;;;;;;;;;;5031528;28;20049;-89
2021/06/08 10:13:04;;;;;;;5.25;3.00;;;;;;;;;;5029121;28;20678;-89
2021/06/08 10:15:33;;;;;;;8.93;3.53;;;;;;;;;;5023676;28;20494;-90
2021/06/08 10:18:02;;;;;;;4.65;3.20;;;;;;;;;;5032211;28;20091;-91
2021/06/08 10:20:30;;;;;;;5.00;3.08;;;;;;;;;;5032365;28;20050;-89
2021/06/08 10:22:58;;;;;;;4.75;3.03;;;;;;;;;;5029923;28;20077;-89
2021/06/08 10:25:26;;;;;;;7.47;2.72;;;;;;;;;;5029724;28;20045;-89
2021/06/08 10:27:53;;;;;;;7.50;2.75;;;;;;;;;;5028772;28;20049;-89
2021/06/08 10:30:21;;;;;;;9.68;2.47;;;;;;;;;;5029868;28;20053;-89
2021/06/08 10:32:48;;;;;;;4.38;2.17;;;;;;;;;;5028908;28;20437;-89
2021/06/08 10:35:37;;;;;;;4.25;2.35;;;;;;;;;;5028757;28;20393;-90
2021/06/08 10:38:05;;;;;;;14.75;3.30;;;;;;;;;;5027771;28;20541;-89
2021/06/08 10:40:34;;;;;;;4.82;3.00;;;;;;;;;;5027597;28;20545;-89
2021/06/08 10:43:03;;;;;;;3.88;2.80;;;;;;;;;;5027806;28;20663;-89
2021/06/08 10:45:37;;;;;;;11.63;3.35;;;;;;;;;;5027761;28;20049;-89
2021/06/08 10:48:08;;;;;;;6.50;2.80;;;;;;;;;;5024346;28;20139;-89
2021/06/08 10:50:37;;;;;;;6.43;3.00;;;;;;;;;;5022529;28;20046;-89
2021/06/08 10:53:06;;;;;;;7.15;2.58;;;;;;;;;;5027698;28;20045;-90
2021/06/08 10:55:39;;;;;;;5.50;2.50;;;;;;;;;;5028148;28;20085;-90
2021/06/08 10:58:07;;;;;;;11.13;2.78;;;;;;;;;;5028044;28;20053;-90
2021/06/08 11:00:38;;;;;;;12.43;3.28;;;;;;;;;;5028466;28;20088;-90
2021/06/08 11:03:07;;;;;;;6.15;2.90;;;;;;;;;;5015796;28;20054;-90
2021/06/08 11:05:56;;;;;;;7.82;3.13;;;;;;;;;;5007638;28;20480;-90
2021/06/08 11:08:51;;;;;;;8.35;2.53;;;;;;;;;;5007379;28;20045;-90
2021/06/08 11:11:41;;;;;;;20.48;3.85;;;;;;;;;;5008343;28;20096;-90
2021/06/08 11:14:29;;;;;;;14.15;3.50;;;;;;;;;;5008515;28;20060;-89
2021/06/08 11:17:02;;;;;;;6.20;3.17;;;;;;;;;;5007584;28;20057;-90
2021/06/08 11:19:42;;;;;;;6.93;3.03;;;;;;;;;;5000360;28;20062;-90
2021/06/08 11:22:10;;;;;;;4.20;2.50;;;;;;;;;;5007877;28;20119;-90
2021/06/08 11:24:40;;;;;;;3.53;2.70;;;;;;;;;;5008022;28;20100;-90
2021/06/08 11:27:13;;;;;;;8.65;3.05;;;;;;;;;;5018157;28;20049;-89
2021/06/08 11:29:51;;;;;;;5.65;2.58;;;;;;;;;;5018942;28;20053;-90
2021/06/08 11:32:32;;;;;;;4.07;2.83;;;;;;;;;;5028726;28;20470;-89
2021/06/08 11:35:15;;;;;;;7.00;3.55;;;;;;;;;;5027052;28;20494;-89
2021/06/08 11:37:50;;;;;;;12.43;3.70;;;;;;;;;;5024894;28;20896;-89
2021/06/08 11:40:42;;;;;;;10.30;3.20;;;;;;;;;;5022612;28;20409;-90
2021/06/08 11:43:19;;;;;;;4.63;2.85;;;;;;;;;;5028557;28;20061;-90
2021/06/08 11:45:48;;;;;;;4.38;2.60;;;;;;;;;;5028307;28;20060;-90
2021/06/08 11:48:37;;;;;;;4.53;3.10;;;;;;;;;;5022063;28;20495;-90
2021/06/08 11:51:17;;;;;;;12.65;3.35;;;;;;;;;;5024614;28;20049;-90
2021/06/08 11:54:11;;;;;;;7.68;2.78;;;;;;;;;;5027396;28;20056;-90
2021/06/08 11:56:48;;;;;;;6.03;2.72;;;;;;;;;;5028132;28;20148;-90
2021/06/08 11:59:18;;;;;;;4.13;2.63;;;;;;;;;;5017427;28;20064;-91
2021/06/08 12:02:00;;;;;;;7.72;3.25;;;;;;;;;;5017314;28;20486;-90
2021/06/08 12:04:30;;;;;;;3.40;2.47;;;;;;;;;;5005289;28;20054;-90
2021/06/08 12:07:05;;;;;;;5.10;2.67;;;;;;;;;;5019534;28;20045;-90
2021/06/08 12:09:44;;;;;;;7.18;2.97;;;;;;;;;;5008646;28;20684;-91
2021/06/08 12:12:13;;;;;;;39.22;4.50;;;;;;;;;;5002179;28;20064;-89
2021/06/08 12:17:17;;;;;;;5.20;2.13;;;;;;;;;;5008614;28;20211;-86
2021/06/08 12:19:51;;;;;;;5.60;2.33;;;;;;;;;;4979972;28;20147;-86
2021/06/08 12:22:18;;;;;;;3.97;2.30;;;;;;;;;;5008073;28;20562;-86
2021/06/08 12:25:01;;;;;;;5.55;2.17;;;;;;;;;;4988859;28;20132;-85
2021/06/08 12:27:47;;;;;;;4.85;2.00;;;;;;;;;;4991253;28;20042;-85
2021/06/08 12:30:17;;;;;;;3.50;2.10;;;;;;;;;;4985438;28;20046;-86
2021/06/08 12:32:52;;;;;;;6.28;2.40;;;;;;;;;;4992729;28;20589;-85
2021/06/08 12:35:21;;;;;;;2.05;1.60;;;;;;;;;;4993145;28;20068;-86
2021/06/08 12:37:48;;;;;;;2.53;1.48;;;;;;;;;;5003899;28;20069;-88
2021/06/08 12:40:17;;;;;;;3.85;1.60;;;;;;;;;;4982321;28;20093;-85
2021/06/08 12:42:45;;;;;;;3.08;1.77;;;;;;;;;;4990516;28;20643;-85
2021/06/08 12:45:13;;;;;;;2.80;1.90;;;;;;;;;;4992909;28;20096;-84
2021/06/08 12:47:40;;;;;;;4.35;1.75;;;;;;;;;;4989028;28;20451;-83
2021/06/08 12:50:18;;;;;;;2.50;1.60;;;;;;;;;;4987822;28;20053;-84
2021/06/08 12:52:55;;;;;;;3.03;1.58;;;;;;;;;;4993172;28;20058;-81
2021/06/08 12:55:26;;;;;;;2.95;1.73;;;;;;;;;;5010657;28;20086;-85
2021/06/08 12:58:02;;;;;;;3.60;1.58;;;;;;;;;;5005989;28;20443;-82
2021/06/08 13:00:31;;;;;;;9.52;1.40;;;;;;;;;;4976107;28;20522;-85
2021/06/08 13:03:03;;;;;;;1.70;1.15;;;;;;;;;;4976164;28;20054;-84
2021/06/08 13:05:32;;;;;;;2.33;1.30;;;;;;;;;;4992899;28;20073;-85
2021/06/08 13:08:01;;;;;;;4.35;1.67;;;;;;;;;;4987838;28;20654;-84
2021/06/08 13:10:32;;;;;;;6.45;1.20;;;;;;;;;;4984819;28;20046;-84
2021/06/08 13:13:05;;;;;;;2.83;1.13;;;;;;;;;;4992596;28;20658;-85
2021/06/08 13:15:42;;;;;;;3.50;1.30;;;;;;;;;;4992221;28;20086;-84
2021/06/08 13:18:14;;;;;;;1.17;0.90;;;;;;;;;;4986738;28;20494;-84
2021/06/08 13:20:44;;;;;;;3.15;1.45;;;;;;;;;;4989573;28;20140;-84
2021/06/08 13:23:18;;;;;;;2.05;1.10;;;;;;;;;;4992888;28;20081;-85
2021/06/08 13:26:05;;;;;;;2.23;1.20;;;;;;;;;;4992910;28;20125;-84
2021/06/08 13:28:40;;;;;;;20.17;3.20;;;;;;;;;;4983987;28;20078;-82
2021/06/08 13:31:10;;;;;;;2.83;1.30;;;;;;;;;;4994589;28;20085;-89
2021/06/08 13:33:39;;;;;;;3.55;1.48;;;;;;;;;;4998692;28;20171;-85
2021/06/08 13:36:25;;;;;;;9.57;1.20;;;;;;;;;;5016469;28;20050;-88
2021/06/08 13:38:56;;;;;;;4.72;1.33;;;;;;;;;;4969735;28;20138;-85
2021/06/08 13:41:35;;;;;;;2.15;1.08;;;;;;;;;;4991426;28;20451;-85
2021/06/08 13:44:06;;;;;;;5.05;1.25;;;;;;;;;;4977153;28;20708;-85
2021/06/08 13:46:55;;;;;;;6.00;1.50;;;;;;;;;;4981616;28;20058;-85
2021/06/08 13:49:39;;;;;;;1.83;1.08;;;;;;;;;;4996138;28;20050;-84
2021/06/08 13:52:06;;;;;;;2.58;0.98;;;;;;;;;;5013750;28;20050;-80
2021/06/08 13:54:34;;;;;;;1.58;0.85;;;;;;;;;;4995414;28;20077;-85
2021/06/08 13:57:07;;;;;;;5.60;1.30;;;;;;;;;;4997016;28;20141;-89
2021/06/08 14:03:01;;;;;;;13.55;1.50;;;;;;;;;;5007633;28;20769;-90
2021/06/08 14:05:37;;;;;;;9.05;1.33;;;;;;;;;;4996383;28;20129;-89
2021/06/08 14:08:14;;;;;;;20.25;1.80;;;;;;;;;;4981087;28;20560;-89
2021/06/08 14:10:56;;;;;;;0.98;0.90;;;;;;;;;;4985322;28;20058;-84
2021/06/08 14:13:38;;;;;;;1.42;0.77;;;;;;;;;;4996006;28;20080;-85
2021/06/08 14:16:06;;;;;;;1.60;0.70;;;;;;;;;;4996048;28;20086;-84
2021/06/08 14:18:36;;;;;;;1.00;0.73;;;;;;;;;;4985663;28;20058;-84
2021/06/08 14:21:03;;;;;;;2.20;0.90;;;;;;;;;;4991103;28;20065;-84
2021/06/08 14:23:32;;;;;;;0.95;0.70;;;;;;;;;;4993426;28;20149;-84
2021/06/08 14:26:10;;;;;;;2.47;1.08;;;;;;;;;;4990051;28;20056;-83
2021/06/08 14:28:42;;;;;;;0.80;0.80;;;;;;;;;;4985039;28;20137;-84
2021/06/08 14:31:09;;;;;;;0.65;0.65;;;;;;;;;;4988896;28;20076;-83
2021/06/08 14:33:37;;;;;;;5.03;1.00;;;;;;;;;;4994817;28;20049;-84
2021/06/08 14:36:04;;;;;;;5.53;1.00;;;;;;;;;;4995556;28;20048;-85
2021/06/08 14:38:33;;;;;;;0.90;0.68;;;;;;;;;;5001076;28;20121;-85
2021/06/08 14:41:01;;;;;;;1.52;0.73;;;;;;;;;;4997523;23;20092;-83
2021/06/08 14:43:28;;;;;;;1.45;1.02;;;;;;;;;;5023081;28;20060;-85
2021/06/08 14:45:55;;;;;;;3.03;1.08;;;;;;;;;;5035599;28;20052;-87
2021/06/08 14:48:23;;;;;;;2.90;1.15;;;;;;;;;;5006003;23;20499;-88
2021/06/08 14:51:08;;;;;;;0.90;0.70;;;;;;;;;;5019960;23;20124;-88
2021/06/08 14:56:04;;;;;;;1.13;0.85;;;;;;;;;;5010802;28;20062;-83
2021/06/08 14:58:37;;;;;;;3.50;1.17;;;;;;;;;;5005735;28;20081;-84
2021/06/08 15:01:05;;;;;;;0.98;0.80;;;;;;;;;;5009621;28;20683;-86
2021/06/08 15:03:44;;;;;;;2.13;0.90;;;;;;;;;;5011108;28;20052;-85
2021/06/08 15:06:12;;;;;;;4.32;1.02;;;;;;;;;;5009503;28;20061;-86
2021/06/08 15:08:56;;;;;;;1.50;0.93;;;;;;;;;;5004012;28;20764;-86
2021/06/08 15:11:23;;;;;;;2.00;0.90;;;;;;;;;;5011789;28;20141;-87
2021/06/08 15:13:53;;;;;;;7.05;0.90;;;;;;;;;;5007474;28;20134;-84
2021/06/08 15:16:20;;;;;;;4.57;0.88;;;;;;;;;;5004667;28;20050;-84
2021/06/08 15:18:47;;;;;;;4.47;1.35;;;;;;;;;;5007881;28;20061;-84